Погода Терешинона 2 недели

Смоленская область, Россия

25 мая-07 июня
  • 25мая
    Сегодня
    +10°
    +24°
    Ясно и безоблачно
    ВремяПогодаТемператураВлажностьДавлениеВетер, м/сВероятность осадков
    00:00Ясно и безоблачно+12°C50 %755 мм1.6 м/с2 %
    03:00Ясно и безоблачно+9°C58 %755 мм1.6 м/с2 %
    06:00Ясно и безоблачно+9°C60 %755 мм1.4 м/с2 %
    09:00Ясно и безоблачно+17°C46 %755 мм1.9 м/с2 %
    12:00Ясно и безоблачно+22°C33 %754 мм2.3 м/с2 %
    15:00Ясно и безоблачно+23°C31 %753 мм3.2 м/с2 %
    18:00Ясно и безоблачно+24°C32 %752 мм2.1 м/с2 %
    21:00Ясно и безоблачно+19°C55 %752 мм1.6 м/с2 %
  • 26мая
    Воскресенье
    +11°
    +25°
    Небольшая облачность
    ВремяПогодаТемператураВлажностьДавлениеВетер, м/сВероятность осадков
    00:00Ясно и безоблачно+14°C65 %752 мм1.0 м/с2 %
    03:00Ясно и безоблачно+11°C73 %751 мм1.2 м/с2 %
    06:00Ясно и безоблачно+12°C73 %752 мм1.1 м/с2 %
    09:00Ясно и безоблачно+20°C52 %752 мм1.7 м/с2 %
    12:00Практически безоблачно+24°C35 %752 мм2.1 м/с4 %
    15:00Небольшая облачность+24°C32 %751 мм2.5 м/с12 %
    18:00Небольшая облачность+23°C38 %751 мм2.2 м/с25 %
    21:00Ясно и безоблачно+19°C67 %751 мм1.4 м/с11 %
  • 27мая
    Понедельник
    +11°
    +24°
    Ясно и безоблачно
    ВремяПогодаТемператураВлажностьДавлениеВетер, м/сВероятность осадков
    00:00Ясно и безоблачно+14°C91 %752 мм1.0 м/с2 %
    03:00Ясно и безоблачно+12°C95 %752 мм1.4 м/с1 %
    06:00Ясно и безоблачно+12°C68 %753 мм1.4 м/с2 %
    09:00Ясно и безоблачно+19°C47 %753 мм2.1 м/с2 %
    12:00Ясно и безоблачно+22°C42 %753 мм2.1 м/с18 %
    15:00Ясно и безоблачно+24°C36 %752 мм2.9 м/с23 %
    18:00Ясно и безоблачно+23°C37 %751 мм1.8 м/с16 %
    21:00Ясно и безоблачно+20°C52 %751 мм1.9 м/с5 %
  • 28мая
    Вторник
    +13°
    +25°
    Практически безоблачно
    ВремяПогодаТемператураВлажностьДавлениеВетер, м/сВероятность осадков
    00:00Ясно и безоблачно+15°C56 %751 мм1.4 м/с2 %
    03:00Ясно и безоблачно+13°C66 %751 мм1.3 м/с2 %
    06:00Ясно и безоблачно+13°C70 %750 мм1.0 м/с2 %
    09:00Ясно и безоблачно+21°C54 %751 мм1.4 м/с2 %
    12:00Практически безоблачно+24°C43 %750 мм1.5 м/с17 %
    15:00Практически безоблачно+25°C40 %750 мм1.7 м/с21 %
    18:00Практически безоблачно+24°C39 %748 мм1.9 м/с21 %
    21:00Практически безоблачно+21°C61 %748 мм1.4 м/с9 %
  • 29мая
    Среда
    +12°
    +25°
    Небольшая облачность
    ВремяПогодаТемператураВлажностьДавлениеВетер, м/сВероятность осадков
    00:00Практически безоблачно+16°C69 %748 мм1.3 м/с2 %
    03:00Небольшая облачность+15°C65 %747 мм1.3 м/с4 %
    06:00Облачно с прояснениями+14°C69 %747 мм0.6 м/с3 %
    09:00Небольшая облачность+22°C52 %747 мм1.2 м/с4 %
    12:00Практически безоблачно+25°C39 %747 мм1.0 м/с27 %
    15:00Небольшая облачность+25°C39 %745 мм2.2 м/с30 %
    18:00Небольшая облачность, возможен дождь с грозой+22°C49 %745 мм1.5 м/с30 %
    21:00Практически безоблачно+20°C69 %745 мм1.1 м/с7 %
Мы используем cookies
Соглашаюсь